sensor_id;sensor_type;location;lat;lon;timestamp;P1;durP1;ratioP1;P2;durP2;ratioP2
13959;SDS011;7052;51.050;3.716;2024-02-21T00:01:38;6.90;;;3.13;;
13959;SDS011;7052;51.050;3.716;2024-02-21T00:04:05;5.17;;;3.00;;
13959;SDS011;7052;51.050;3.716;2024-02-21T00:06:32;5.13;;;3.00;;
13959;SDS011;7052;51.050;3.716;2024-02-21T00:08:59;5.80;;;3.10;;
13959;SDS011;7052;51.050;3.716;2024-02-21T00:11:42;7.43;;;3.20;;
13959;SDS011;7052;51.050;3.716;2024-02-21T00:14:09;5.70;;;3.17;;
13959;SDS011;7052;51.050;3.716;2024-02-21T00:16:44;6.77;;;3.30;;
13959;SDS011;7052;51.050;3.716;2024-02-21T00:19:15;4.83;;;3.20;;
13959;SDS011;7052;51.050;3.716;2024-02-21T00:21:45;6.30;;;3.17;;
13959;SDS011;7052;51.050;3.716;2024-02-21T00:24:18;5.93;;;3.40;;
13959;SDS011;7052;51.050;3.716;2024-02-21T00:26:53;5.27;;;3.90;;
13959;SDS011;7052;51.050;3.716;2024-02-21T00:29:20;5.37;;;3.70;;
13959;SDS011;7052;51.050;3.716;2024-02-21T00:31:54;5.37;;;3.73;;
13959;SDS011;7052;51.050;3.716;2024-02-21T00:34:21;5.83;;;4.17;;
13959;SDS011;7052;51.050;3.716;2024-02-21T00:36:57;7.67;;;3.97;;
13959;SDS011;7052;51.050;3.716;2024-02-21T00:39:24;7.43;;;3.93;;
13959;SDS011;7052;51.050;3.716;2024-02-21T00:41:52;8.37;;;4.23;;
13959;SDS011;7052;51.050;3.716;2024-02-21T00:44:19;6.93;;;4.23;;
13959;SDS011;7052;51.050;3.716;2024-02-21T00:46:46;9.63;;;4.50;;
13959;SDS011;7052;51.050;3.716;2024-02-21T00:49:14;9.33;;;5.13;;
13959;SDS011;7052;51.050;3.716;2024-02-21T00:51:42;9.43;;;5.33;;
13959;SDS011;7052;51.050;3.716;2024-02-21T00:54:10;12.87;;;5.87;;
13959;SDS011;7052;51.050;3.716;2024-02-21T00:56:39;10.90;;;5.70;;
13959;SDS011;7052;51.050;3.716;2024-02-21T00:59:09;9.90;;;6.03;;
13959;SDS011;7052;51.050;3.716;2024-02-21T01:01:36;9.20;;;5.70;;
13959;SDS011;7052;51.050;3.716;2024-02-21T01:04:02;9.50;;;6.03;;
13959;SDS011;7052;51.050;3.716;2024-02-21T01:06:31;15.27;;;7.10;;
13959;SDS011;7052;51.050;3.716;2024-02-21T01:08:59;13.20;;;6.40;;
13959;SDS011;7052;51.050;3.716;2024-02-21T01:11:26;12.83;;;7.13;;
13959;SDS011;7052;51.050;3.716;2024-02-21T01:13:53;12.10;;;6.70;;
13959;SDS011;7052;51.050;3.716;2024-02-21T01:16:21;13.70;;;6.57;;
13959;SDS011;7052;51.050;3.716;2024-02-21T01:18:49;13.03;;;6.80;;
13959;SDS011;7052;51.050;3.716;2024-02-21T01:21:16;13.23;;;7.17;;
13959;SDS011;7052;51.050;3.716;2024-02-21T01:23:44;16.10;;;6.93;;
13959;SDS011;7052;51.050;3.716;2024-02-21T01:26:12;14.17;;;7.43;;
13959;SDS011;7052;51.050;3.716;2024-02-21T01:28:40;14.60;;;6.77;;
13959;SDS011;7052;51.050;3.716;2024-02-21T01:31:07;13.73;;;7.33;;
13959;SDS011;7052;51.050;3.716;2024-02-21T01:33:37;11.50;;;7.23;;
13959;SDS011;7052;51.050;3.716;2024-02-21T01:36:04;13.40;;;6.77;;
13959;SDS011;7052;51.050;3.716;2024-02-21T01:38:33;16.53;;;6.93;;
13959;SDS011;7052;51.050;3.716;2024-02-21T01:41:03;13.13;;;6.47;;
13959;SDS011;7052;51.050;3.716;2024-02-21T01:43:30;15.87;;;7.20;;
13959;SDS011;7052;51.050;3.716;2024-02-21T01:45:57;14.33;;;6.60;;
13959;SDS011;7052;51.050;3.716;2024-02-21T01:48:24;15.73;;;6.77;;
13959;SDS011;7052;51.050;3.716;2024-02-21T01:50:52;14.80;;;6.93;;
13959;SDS011;7052;51.050;3.716;2024-02-21T01:53:23;12.67;;;7.03;;
13959;SDS011;7052;51.050;3.716;2024-02-21T01:55:58;13.70;;;6.80;;
13959;SDS011;7052;51.050;3.716;2024-02-21T01:58:27;14.20;;;6.97;;
13959;SDS011;7052;51.050;3.716;2024-02-21T02:00:55;14.63;;;7.17;;
13959;SDS011;7052;51.050;3.716;2024-02-21T02:03:23;12.53;;;7.13;;
13959;SDS011;7052;51.050;3.716;2024-02-21T02:05:51;16.27;;;6.30;;
13959;SDS011;7052;51.050;3.716;2024-02-21T02:08:19;16.30;;;6.97;;
13959;SDS011;7052;51.050;3.716;2024-02-21T02:10:47;14.30;;;6.50;;
13959;SDS011;7052;51.050;3.716;2024-02-21T02:13:14;17.80;;;7.53;;
13959;SDS011;7052;51.050;3.716;2024-02-21T02:15:43;13.40;;;7.30;;
13959;SDS011;7052;51.050;3.716;2024-02-21T02:18:12;12.00;;;6.60;;
13959;SDS011;7052;51.050;3.716;2024-02-21T02:20:43;15.73;;;6.83;;
13959;SDS011;7052;51.050;3.716;2024-02-21T02:23:11;15.03;;;6.97;;
13959;SDS011;7052;51.050;3.716;2024-02-21T02:25:42;20.13;;;6.33;;
13959;SDS011;7052;51.050;3.716;2024-02-21T02:28:09;17.60;;;6.73;;
13959;SDS011;7052;51.050;3.716;2024-02-21T02:30:39;10.77;;;6.70;;
13959;SDS011;7052;51.050;3.716;2024-02-21T02:33:06;15.43;;;7.13;;
13959;SDS011;7052;51.050;3.716;2024-02-21T02:35:33;18.50;;;6.07;;
13959;SDS011;7052;51.050;3.716;2024-02-21T02:38:01;13.43;;;6.70;;
13959;SDS011;7052;51.050;3.716;2024-02-21T02:40:33;15.40;;;6.53;;
13959;SDS011;7052;51.050;3.716;2024-02-21T02:43:03;14.33;;;6.80;;
13959;SDS011;7052;51.050;3.716;2024-02-21T02:45:30;14.97;;;6.33;;
13959;SDS011;7052;51.050;3.716;2024-02-21T02:47:58;11.97;;;6.17;;
13959;SDS011;7052;51.050;3.716;2024-02-21T02:50:26;13.30;;;6.90;;
13959;SDS011;7052;51.050;3.716;2024-02-21T02:52:53;15.40;;;7.00;;
13959;SDS011;7052;51.050;3.716;2024-02-21T02:55:21;16.27;;;7.10;;
13959;SDS011;7052;51.050;3.716;2024-02-21T02:57:48;14.10;;;6.73;;
13959;SDS011;7052;51.050;3.716;2024-02-21T03:00:18;14.63;;;6.67;;
13959;SDS011;7052;51.050;3.716;2024-02-21T03:02:48;14.77;;;6.97;;
13959;SDS011;7052;51.050;3.716;2024-02-21T03:05:16;14.80;;;6.70;;
13959;SDS011;7052;51.050;3.716;2024-02-21T03:07:44;14.83;;;6.90;;
13959;SDS011;7052;51.050;3.716;2024-02-21T03:10:12;13.13;;;6.30;;
13959;SDS011;7052;51.050;3.716;2024-02-21T03:12:41;15.47;;;6.53;;
13959;SDS011;7052;51.050;3.716;2024-02-21T03:15:09;14.90;;;7.13;;
13959;SDS011;7052;51.050;3.716;2024-02-21T03:17:40;16.43;;;7.63;;
13959;SDS011;7052;51.050;3.716;2024-02-21T03:20:09;13.90;;;7.03;;
13959;SDS011;7052;51.050;3.716;2024-02-21T03:22:39;19.23;;;8.03;;
13959;SDS011;7052;51.050;3.716;2024-02-21T03:25:07;17.30;;;7.60;;
13959;SDS011;7052;51.050;3.716;2024-02-21T03:27:40;13.70;;;7.60;;
13959;SDS011;7052;51.050;3.716;2024-02-21T03:30:07;19.47;;;8.23;;
13959;SDS011;7052;51.050;3.716;2024-02-21T03:32:35;15.47;;;7.37;;
13959;SDS011;7052;51.050;3.716;2024-02-21T03:35:05;13.57;;;7.17;;
13959;SDS011;7052;51.050;3.716;2024-02-21T03:37:32;16.73;;;8.03;;
13959;SDS011;7052;51.050;3.716;2024-02-21T03:40:06;14.77;;;7.13;;
13959;SDS011;7052;51.050;3.716;2024-02-21T03:42:35;16.70;;;7.93;;
13959;SDS011;7052;51.050;3.716;2024-02-21T03:45:02;12.93;;;7.13;;
13959;SDS011;7052;51.050;3.716;2024-02-21T03:47:29;15.13;;;7.53;;
13959;SDS011;7052;51.050;3.716;2024-02-21T03:49:58;14.20;;;7.67;;
13959;SDS011;7052;51.050;3.716;2024-02-21T03:52:25;14.03;;;7.23;;
13959;SDS011;7052;51.050;3.716;2024-02-21T03:54:54;13.90;;;7.50;;
13959;SDS011;7052;51.050;3.716;2024-02-21T03:57:21;14.60;;;7.40;;
13959;SDS011;7052;51.050;3.716;2024-02-21T03:59:50;11.47;;;7.40;;
13959;SDS011;7052;51.050;3.716;2024-02-21T04:02:17;14.37;;;7.63;;
13959;SDS011;7052;51.050;3.716;2024-02-21T04:04:44;13.63;;;7.60;;
13959;SDS011;7052;51.050;3.716;2024-02-21T04:07:16;18.57;;;8.00;;
13959;SDS011;7052;51.050;3.716;2024-02-21T04:09:47;12.50;;;7.40;;
13959;SDS011;7052;51.050;3.716;2024-02-21T04:12:14;14.93;;;7.87;;
13959;SDS011;7052;51.050;3.716;2024-02-21T04:14:41;18.67;;;7.87;;
13959;SDS011;7052;51.050;3.716;2024-02-21T04:17:08;15.77;;;8.40;;
13959;SDS011;7052;51.050;3.716;2024-02-21T04:19:35;14.97;;;8.67;;
13959;SDS011;7052;51.050;3.716;2024-02-21T04:22:06;16.40;;;8.33;;
13959;SDS011;7052;51.050;3.716;2024-02-21T04:24:39;11.47;;;7.53;;
13959;SDS011;7052;51.050;3.716;2024-02-21T04:27:05;17.77;;;9.07;;
13959;SDS011;7052;51.050;3.716;2024-02-21T04:29:34;15.53;;;8.07;;
13959;SDS011;7052;51.050;3.716;2024-02-21T04:32:02;19.47;;;8.50;;
13959;SDS011;7052;51.050;3.716;2024-02-21T04:34:30;21.27;;;9.77;;
13959;SDS011;7052;51.050;3.716;2024-02-21T04:36:59;12.97;;;8.40;;
13959;SDS011;7052;51.050;3.716;2024-02-21T04:39:26;18.13;;;9.13;;
13959;SDS011;7052;51.050;3.716;2024-02-21T04:41:54;15.93;;;8.97;;
13959;SDS011;7052;51.050;3.716;2024-02-21T04:44:22;18.43;;;9.13;;
13959;SDS011;7052;51.050;3.716;2024-02-21T04:46:50;22.23;;;9.37;;
13959;SDS011;7052;51.050;3.716;2024-02-21T04:49:17;15.93;;;8.53;;
13959;SDS011;7052;51.050;3.716;2024-02-21T04:51:44;16.50;;;8.97;;
13959;SDS011;7052;51.050;3.716;2024-02-21T04:54:11;14.37;;;8.63;;
13959;SDS011;7052;51.050;3.716;2024-02-21T04:56:39;18.70;;;9.10;;
13959;SDS011;7052;51.050;3.716;2024-02-21T04:59:08;17.63;;;8.67;;
13959;SDS011;7052;51.050;3.716;2024-02-21T05:01:36;17.55;;;10.30;;
13959;SDS011;7052;51.050;3.716;2024-02-21T05:04:03;14.23;;;9.33;;
13959;SDS011;7052;51.050;3.716;2024-02-21T05:06:30;14.13;;;8.70;;
13959;SDS011;7052;51.050;3.716;2024-02-21T05:08:57;13.67;;;8.70;;
13959;SDS011;7052;51.050;3.716;2024-02-21T05:11:24;15.93;;;9.07;;
13959;SDS011;7052;51.050;3.716;2024-02-21T05:13:52;14.23;;;8.07;;
13959;SDS011;7052;51.050;3.716;2024-02-21T05:16:20;11.70;;;7.83;;
13959;SDS011;7052;51.050;3.716;2024-02-21T05:18:48;16.87;;;8.57;;
13959;SDS011;7052;51.050;3.716;2024-02-21T05:21:15;17.00;;;8.33;;
13959;SDS011;7052;51.050;3.716;2024-02-21T05:23:53;12.93;;;8.00;;
13959;SDS011;7052;51.050;3.716;2024-02-21T05:26:20;16.00;;;7.57;;
13959;SDS011;7052;51.050;3.716;2024-02-21T05:28:48;15.20;;;8.47;;
13959;SDS011;7052;51.050;3.716;2024-02-21T05:31:15;14.07;;;8.37;;
13959;SDS011;7052;51.050;3.716;2024-02-21T05:33:43;13.17;;;8.13;;
13959;SDS011;7052;51.050;3.716;2024-02-21T05:36:10;17.38;;;8.35;;
13959;SDS011;7052;51.050;3.716;2024-02-21T05:38:37;15.13;;;8.67;;
13959;SDS011;7052;51.050;3.716;2024-02-21T05:41:07;13.33;;;8.50;;
13959;SDS011;7052;51.050;3.716;2024-02-21T05:43:34;10.70;;;8.10;;
13959;SDS011;7052;51.050;3.716;2024-02-21T05:46:02;16.33;;;8.97;;
13959;SDS011;7052;51.050;3.716;2024-02-21T05:48:29;14.03;;;8.67;;
13959;SDS011;7052;51.050;3.716;2024-02-21T05:50:57;14.20;;;8.70;;
13959;SDS011;7052;51.050;3.716;2024-02-21T05:53:29;14.53;;;8.43;;
13959;SDS011;7052;51.050;3.716;2024-02-21T05:55:56;11.33;;;8.40;;
13959;SDS011;7052;51.050;3.716;2024-02-21T05:58:22;14.40;;;8.00;;
13959;SDS011;7052;51.050;3.716;2024-02-21T06:00:50;17.80;;;8.33;;
13959;SDS011;7052;51.050;3.716;2024-02-21T06:03:19;14.67;;;8.60;;
13959;SDS011;7052;51.050;3.716;2024-02-21T06:05:46;15.97;;;9.17;;
13959;SDS011;7052;51.050;3.716;2024-02-21T06:08:17;11.97;;;8.30;;
13959;SDS011;7052;51.050;3.716;2024-02-21T06:10:44;15.83;;;8.70;;
13959;SDS011;7052;51.050;3.716;2024-02-21T06:13:11;12.77;;;8.20;;
13959;SDS011;7052;51.050;3.716;2024-02-21T06:15:38;13.77;;;8.30;;
13959;SDS011;7052;51.050;3.716;2024-02-21T06:18:06;12.20;;;8.47;;
13959;SDS011;7052;51.050;3.716;2024-02-21T06:20:33;16.17;;;8.93;;
13959;SDS011;7052;51.050;3.716;2024-02-21T06:23:08;14.53;;;8.57;;
13959;SDS011;7052;51.050;3.716;2024-02-21T06:25:39;12.23;;;8.23;;
13959;SDS011;7052;51.050;3.716;2024-02-21T06:28:06;11.50;;;8.63;;
13959;SDS011;7052;51.050;3.716;2024-02-21T06:30:33;13.07;;;9.40;;
13959;SDS011;7052;51.050;3.716;2024-02-21T06:33:00;11.33;;;8.43;;
13959;SDS011;7052;51.050;3.716;2024-02-21T06:35:27;13.57;;;9.70;;
13959;SDS011;7052;51.050;3.716;2024-02-21T06:37:54;13.07;;;9.30;;
13959;SDS011;7052;51.050;3.716;2024-02-21T06:40:22;16.90;;;9.03;;
13959;SDS011;7052;51.050;3.716;2024-02-21T06:42:51;15.33;;;9.47;;
13959;SDS011;7052;51.050;3.716;2024-02-21T06:45:17;15.97;;;9.70;;
13959;SDS011;7052;51.050;3.716;2024-02-21T06:47:45;13.73;;;9.53;;
13959;SDS011;7052;51.050;3.716;2024-02-21T06:50:14;16.13;;;9.83;;
13959;SDS011;7052;51.050;3.716;2024-02-21T06:52:42;18.03;;;10.63;;
13959;SDS011;7052;51.050;3.716;2024-02-21T06:55:09;14.33;;;9.80;;
13959;SDS011;7052;51.050;3.716;2024-02-21T06:57:36;14.90;;;9.20;;
13959;SDS011;7052;51.050;3.716;2024-02-21T07:00:05;17.83;;;10.00;;
13959;SDS011;7052;51.050;3.716;2024-02-21T07:02:36;17.73;;;10.23;;
13959;SDS011;7052;51.050;3.716;2024-02-21T07:05:05;22.80;;;10.80;;
13959;SDS011;7052;51.050;3.716;2024-02-21T07:07:33;14.23;;;9.43;;
13959;SDS011;7052;51.050;3.716;2024-02-21T07:10:02;12.80;;;9.27;;
13959;SDS011;7052;51.050;3.716;2024-02-21T07:12:32;15.43;;;10.53;;
13959;SDS011;7052;51.050;3.716;2024-02-21T07:15:02;13.20;;;8.93;;
13959;SDS011;7052;51.050;3.716;2024-02-21T07:17:33;12.53;;;8.90;;
13959;SDS011;7052;51.050;3.716;2024-02-21T07:20:00;23.33;;;9.63;;
13959;SDS011;7052;51.050;3.716;2024-02-21T07:22:28;13.63;;;8.87;;
13959;SDS011;7052;51.050;3.716;2024-02-21T07:24:55;11.50;;;8.90;;
13959;SDS011;7052;51.050;3.716;2024-02-21T07:27:23;13.77;;;9.17;;
13959;SDS011;7052;51.050;3.716;2024-02-21T07:29:53;13.27;;;8.73;;
13959;SDS011;7052;51.050;3.716;2024-02-21T07:32:23;12.07;;;8.90;;
13959;SDS011;7052;51.050;3.716;2024-02-21T07:34:51;15.53;;;9.20;;
13959;SDS011;7052;51.050;3.716;2024-02-21T07:37:18;14.33;;;9.00;;
13959;SDS011;7052;51.050;3.716;2024-02-21T07:39:47;15.37;;;9.00;;
13959;SDS011;7052;51.050;3.716;2024-02-21T07:42:17;13.27;;;8.93;;
13959;SDS011;7052;51.050;3.716;2024-02-21T07:44:45;13.10;;;9.30;;
13959;SDS011;7052;51.050;3.716;2024-02-21T07:47:12;15.33;;;9.30;;
13959;SDS011;7052;51.050;3.716;2024-02-21T07:49:43;12.30;;;9.13;;
13959;SDS011;7052;51.050;3.716;2024-02-21T07:52:11;14.53;;;8.53;;
13959;SDS011;7052;51.050;3.716;2024-02-21T07:54:39;13.33;;;9.30;;
13959;SDS011;7052;51.050;3.716;2024-02-21T07:57:06;12.83;;;9.63;;
13959;SDS011;7052;51.050;3.716;2024-02-21T07:59:33;14.47;;;9.57;;
13959;SDS011;7052;51.050;3.716;2024-02-21T08:02:00;14.47;;;9.80;;
13959;SDS011;7052;51.050;3.716;2024-02-21T08:04:27;13.83;;;10.00;;
13959;SDS011;7052;51.050;3.716;2024-02-21T08:06:56;18.07;;;9.97;;
13959;SDS011;7052;51.050;3.716;2024-02-21T08:09:26;16.30;;;9.77;;
13959;SDS011;7052;51.050;3.716;2024-02-21T08:11:54;12.90;;;9.57;;
13959;SDS011;7052;51.050;3.716;2024-02-21T08:14:21;13.03;;;9.27;;
13959;SDS011;7052;51.050;3.716;2024-02-21T08:16:49;13.47;;;9.30;;
13959;SDS011;7052;51.050;3.716;2024-02-21T08:19:18;13.13;;;9.03;;
13959;SDS011;7052;51.050;3.716;2024-02-21T08:21:47;14.47;;;8.83;;
13959;SDS011;7052;51.050;3.716;2024-02-21T08:24:15;13.80;;;10.20;;
13959;SDS011;7052;51.050;3.716;2024-02-21T08:26:44;11.90;;;9.73;;
13959;SDS011;7052;51.050;3.716;2024-02-21T08:29:11;14.57;;;11.32;;
13959;SDS011;7052;51.050;3.716;2024-02-21T08:31:39;13.30;;;9.30;;
13959;SDS011;7052;51.050;3.716;2024-02-21T08:34:06;9.80;;;8.73;;
13959;SDS011;7052;51.050;3.716;2024-02-21T08:36:35;11.53;;;8.40;;
13959;SDS011;7052;51.050;3.716;2024-02-21T08:39:03;14.80;;;9.40;;
13959;SDS011;7052;51.050;3.716;2024-02-21T08:41:32;13.17;;;9.03;;
13959;SDS011;7052;51.050;3.716;2024-02-21T08:44:02;13.67;;;9.23;;
13959;SDS011;7052;51.050;3.716;2024-02-21T08:46:30;13.00;;;9.30;;
13959;SDS011;7052;51.050;3.716;2024-02-21T08:48:57;12.87;;;8.73;;
13959;SDS011;7052;51.050;3.716;2024-02-21T08:51:25;13.83;;;9.50;;
13959;SDS011;7052;51.050;3.716;2024-02-21T08:54:00;16.17;;;9.10;;
13959;SDS011;7052;51.050;3.716;2024-02-21T08:56:29;13.30;;;9.13;;
13959;SDS011;7052;51.050;3.716;2024-02-21T08:59:05;12.90;;;8.60;;
13959;SDS011;7052;51.050;3.716;2024-02-21T09:01:32;12.27;;;8.67;;
13959;SDS011;7052;51.050;3.716;2024-02-21T09:03:59;14.80;;;9.17;;
13959;SDS011;7052;51.050;3.716;2024-02-21T09:06:27;12.37;;;9.30;;
13959;SDS011;7052;51.050;3.716;2024-02-21T09:08:58;12.77;;;9.10;;
13959;SDS011;7052;51.050;3.716;2024-02-21T09:11:25;15.83;;;9.10;;
13959;SDS011;7052;51.050;3.716;2024-02-21T09:13:53;16.13;;;8.97;;
13959;SDS011;7052;51.050;3.716;2024-02-21T09:16:20;11.97;;;8.30;;
13959;SDS011;7052;51.050;3.716;2024-02-21T09:18:48;13.87;;;9.17;;
13959;SDS011;7052;51.050;3.716;2024-02-21T09:21:15;15.43;;;7.73;;
13959;SDS011;7052;51.050;3.716;2024-02-21T09:23:44;11.83;;;7.90;;
13959;SDS011;7052;51.050;3.716;2024-02-21T09:26:13;13.13;;;7.70;;
13959;SDS011;7052;51.050;3.716;2024-02-21T09:28:42;9.80;;;6.83;;
13959;SDS011;7052;51.050;3.716;2024-02-21T09:31:12;12.00;;;7.33;;
13959;SDS011;7052;51.050;3.716;2024-02-21T09:33:39;12.20;;;7.13;;
13959;SDS011;7052;51.050;3.716;2024-02-21T09:36:06;11.77;;;7.70;;
13959;SDS011;7052;51.050;3.716;2024-02-21T09:38:35;14.37;;;7.50;;
13959;SDS011;7052;51.050;3.716;2024-02-21T09:41:04;9.17;;;7.43;;
13959;SDS011;7052;51.050;3.716;2024-02-21T09:43:42;13.53;;;7.07;;
13959;SDS011;7052;51.050;3.716;2024-02-21T09:46:12;10.07;;;6.87;;
13959;SDS011;7052;51.050;3.716;2024-02-21T09:48:44;12.00;;;6.90;;
13959;SDS011;7052;51.050;3.716;2024-02-21T09:51:24;12.43;;;7.27;;
13959;SDS011;7052;51.050;3.716;2024-02-21T09:53:53;13.43;;;7.70;;
13959;SDS011;7052;51.050;3.716;2024-02-21T09:56:22;13.30;;;7.33;;
13959;SDS011;7052;51.050;3.716;2024-02-21T09:58:51;13.63;;;7.30;;
13959;SDS011;7052;51.050;3.716;2024-02-21T10:01:19;14.23;;;7.30;;
13959;SDS011;7052;51.050;3.716;2024-02-21T10:03:47;9.90;;;7.90;;
13959;SDS011;7052;51.050;3.716;2024-02-21T10:06:14;14.13;;;7.53;;
13959;SDS011;7052;51.050;3.716;2024-02-21T10:08:41;12.83;;;7.00;;
13959;SDS011;7052;51.050;3.716;2024-02-21T10:11:10;12.87;;;7.47;;
13959;SDS011;7052;51.050;3.716;2024-02-21T10:13:48;11.90;;;7.07;;
13959;SDS011;7052;51.050;3.716;2024-02-21T10:16:16;11.40;;;7.20;;
13959;SDS011;7052;51.050;3.716;2024-02-21T10:18:44;10.73;;;6.10;;
13959;SDS011;7052;51.050;3.716;2024-02-21T10:21:11;12.20;;;6.60;;
13959;SDS011;7052;51.050;3.716;2024-02-21T10:23:42;9.07;;;6.30;;
13959;SDS011;7052;51.050;3.716;2024-02-21T10:26:13;8.97;;;5.73;;
13959;SDS011;7052;51.050;3.716;2024-02-21T10:28:40;13.63;;;6.60;;
13959;SDS011;7052;51.050;3.716;2024-02-21T10:31:10;10.07;;;6.20;;
13959;SDS011;7052;51.050;3.716;2024-02-21T10:33:53;7.80;;;5.87;;
13959;SDS011;7052;51.050;3.716;2024-02-21T10:36:20;7.97;;;5.53;;
13959;SDS011;7052;51.050;3.716;2024-02-21T10:38:49;9.03;;;5.87;;
13959;SDS011;7052;51.050;3.716;2024-02-21T10:41:16;7.73;;;5.73;;
13959;SDS011;7052;51.050;3.716;2024-02-21T10:43:46;10.23;;;6.10;;
13959;SDS011;7052;51.050;3.716;2024-02-21T10:46:18;11.03;;;5.90;;
13959;SDS011;7052;51.050;3.716;2024-02-21T10:48:48;9.33;;;6.33;;
13959;SDS011;7052;51.050;3.716;2024-02-21T10:51:28;10.77;;;6.47;;
13959;SDS011;7052;51.050;3.716;2024-02-21T10:54:02;11.00;;;7.47;;
13959;SDS011;7052;51.050;3.716;2024-02-21T10:56:39;12.10;;;7.23;;
13959;SDS011;7052;51.050;3.716;2024-02-21T10:59:07;14.10;;;6.93;;
13959;SDS011;7052;51.050;3.716;2024-02-21T11:01:34;8.93;;;6.73;;
13959;SDS011;7052;51.050;3.716;2024-02-21T11:04:03;11.80;;;7.30;;
13959;SDS011;7052;51.050;3.716;2024-02-21T11:06:34;10.27;;;6.97;;
13959;SDS011;7052;51.050;3.716;2024-02-21T11:09:04;10.13;;;7.90;;
13959;SDS011;7052;51.050;3.716;2024-02-21T11:11:33;12.87;;;7.33;;
13959;SDS011;7052;51.050;3.716;2024-02-21T11:14:06;14.93;;;7.50;;
13959;SDS011;7052;51.050;3.716;2024-02-21T11:16:35;14.17;;;7.60;;
13959;SDS011;7052;51.050;3.716;2024-02-21T11:19:09;10.93;;;7.87;;
13959;SDS011;7052;51.050;3.716;2024-02-21T11:21:46;11.37;;;8.70;;
13959;SDS011;7052;51.050;3.716;2024-02-21T11:24:14;8.87;;;6.77;;
13959;SDS011;7052;51.050;3.716;2024-02-21T11:26:53;10.80;;;7.60;;
13959;SDS011;7052;51.050;3.716;2024-02-21T11:29:24;14.40;;;7.80;;
13959;SDS011;7052;51.050;3.716;2024-02-21T11:31:52;11.13;;;7.53;;
13959;SDS011;7052;51.050;3.716;2024-02-21T11:34:21;10.03;;;7.50;;
13959;SDS011;7052;51.050;3.716;2024-02-21T11:36:48;10.70;;;7.13;;
13959;SDS011;7052;51.050;3.716;2024-02-21T11:39:20;11.87;;;8.07;;
13959;SDS011;7052;51.050;3.716;2024-02-21T11:41:59;10.13;;;7.23;;
13959;SDS011;7052;51.050;3.716;2024-02-21T11:44:30;11.60;;;6.70;;
13959;SDS011;7052;51.050;3.716;2024-02-21T11:46:57;10.47;;;7.30;;
13959;SDS011;7052;51.050;3.716;2024-02-21T11:49:46;10.30;;;6.83;;
13959;SDS011;7052;51.050;3.716;2024-02-21T11:52:15;10.13;;;7.53;;
13959;SDS011;7052;51.050;3.716;2024-02-21T11:54:44;9.43;;;7.13;;
13959;SDS011;7052;51.050;3.716;2024-02-21T11:57:21;10.83;;;6.80;;
13959;SDS011;7052;51.050;3.716;2024-02-21T11:59:50;11.43;;;7.00;;
13959;SDS011;7052;51.050;3.716;2024-02-21T12:02:19;8.83;;;6.50;;
13959;SDS011;7052;51.050;3.716;2024-02-21T12:04:48;8.57;;;6.50;;
13959;SDS011;7052;51.050;3.716;2024-02-21T12:07:17;8.20;;;5.97;;
13959;SDS011;7052;51.050;3.716;2024-02-21T12:09:44;8.83;;;5.97;;
13959;SDS011;7052;51.050;3.716;2024-02-21T12:12:11;7.43;;;5.50;;
13959;SDS011;7052;51.050;3.716;2024-02-21T12:14:39;12.57;;;6.30;;
13959;SDS011;7052;51.050;3.716;2024-02-21T12:17:06;10.10;;;5.20;;
13959;SDS011;7052;51.050;3.716;2024-02-21T12:19:34;8.60;;;5.37;;
13959;SDS011;7052;51.050;3.716;2024-02-21T12:22:02;8.10;;;5.63;;
13959;SDS011;7052;51.050;3.716;2024-02-21T12:24:31;7.27;;;4.83;;
13959;SDS011;7052;51.050;3.716;2024-02-21T12:26:57;8.60;;;5.27;;
13959;SDS011;7052;51.050;3.716;2024-02-21T12:29:25;7.43;;;5.43;;
13959;SDS011;7052;51.050;3.716;2024-02-21T12:31:52;17.63;;;5.07;;
13959;SDS011;7052;51.050;3.716;2024-02-21T12:34:20;6.40;;;4.97;;
13959;SDS011;7052;51.050;3.716;2024-02-21T12:36:49;8.13;;;5.60;;
13959;SDS011;7052;51.050;3.716;2024-02-21T12:39:18;8.00;;;5.50;;
13959;SDS011;7052;51.050;3.716;2024-02-21T12:41:53;9.07;;;5.10;;
13959;SDS011;7052;51.050;3.716;2024-02-21T12:44:21;7.50;;;5.20;;
13959;SDS011;7052;51.050;3.716;2024-02-21T12:46:50;7.27;;;5.37;;
13959;SDS011;7052;51.050;3.716;2024-02-21T12:49:22;11.20;;;5.20;;
13959;SDS011;7052;51.050;3.716;2024-02-21T12:51:49;8.70;;;5.27;;
13959;SDS011;7052;51.050;3.716;2024-02-21T12:54:16;7.50;;;5.13;;
13959;SDS011;7052;51.050;3.716;2024-02-21T12:56:48;7.93;;;5.40;;
13959;SDS011;7052;51.050;3.716;2024-02-21T12:59:15;8.60;;;5.63;;
13959;SDS011;7052;51.050;3.716;2024-02-21T13:01:42;7.47;;;5.53;;
13959;SDS011;7052;51.050;3.716;2024-02-21T13:04:11;7.37;;;4.73;;
13959;SDS011;7052;51.050;3.716;2024-02-21T13:06:37;7.00;;;4.93;;
13959;SDS011;7052;51.050;3.716;2024-02-21T13:09:05;8.57;;;4.70;;
13959;SDS011;7052;51.050;3.716;2024-02-21T13:11:45;7.20;;;5.63;;
13959;SDS011;7052;51.050;3.716;2024-02-21T13:14:12;8.60;;;6.40;;
13959;SDS011;7052;51.050;3.716;2024-02-21T13:16:39;8.20;;;6.33;;
13959;SDS011;7052;51.050;3.716;2024-02-21T13:19:07;8.43;;;5.97;;
13959;SDS011;7052;51.050;3.716;2024-02-21T13:21:35;7.13;;;6.43;;
13959;SDS011;7052;51.050;3.716;2024-02-21T13:24:02;8.57;;;5.90;;
13959;SDS011;7052;51.050;3.716;2024-02-21T13:26:29;7.03;;;6.07;;
13959;SDS011;7052;51.050;3.716;2024-02-21T13:28:58;7.67;;;6.20;;
13959;SDS011;7052;51.050;3.716;2024-02-21T13:31:25;7.67;;;5.60;;
13959;SDS011;7052;51.050;3.716;2024-02-21T13:33:54;8.60;;;5.30;;
13959;SDS011;7052;51.050;3.716;2024-02-21T13:36:23;8.50;;;5.10;;
13959;SDS011;7052;51.050;3.716;2024-02-21T13:38:54;11.77;;;5.53;;
13959;SDS011;7052;51.050;3.716;2024-02-21T13:41:23;7.60;;;4.80;;
13959;SDS011;7052;51.050;3.716;2024-02-21T13:43:51;7.40;;;5.17;;
13959;SDS011;7052;51.050;3.716;2024-02-21T13:46:20;9.13;;;5.17;;
13959;SDS011;7052;51.050;3.716;2024-02-21T13:48:50;9.87;;;4.93;;
13959;SDS011;7052;51.050;3.716;2024-02-21T13:51:20;6.27;;;4.63;;
13959;SDS011;7052;51.050;3.716;2024-02-21T13:53:47;8.20;;;4.77;;
13959;SDS011;7052;51.050;3.716;2024-02-21T13:56:14;6.37;;;5.30;;
13959;SDS011;7052;51.050;3.716;2024-02-21T13:58:48;7.17;;;5.07;;
13959;SDS011;7052;51.050;3.716;2024-02-21T14:01:17;7.50;;;5.57;;
13959;SDS011;7052;51.050;3.716;2024-02-21T14:03:47;9.17;;;4.93;;
13959;SDS011;7052;51.050;3.716;2024-02-21T14:06:16;8.10;;;4.80;;
13959;SDS011;7052;51.050;3.716;2024-02-21T14:08:43;7.17;;;4.97;;
13959;SDS011;7052;51.050;3.716;2024-02-21T14:11:11;6.93;;;4.73;;
13959;SDS011;7052;51.050;3.716;2024-02-21T14:13:39;7.47;;;5.30;;
13959;SDS011;7052;51.050;3.716;2024-02-21T14:16:09;9.50;;;5.60;;
13959;SDS011;7052;51.050;3.716;2024-02-21T14:18:38;9.17;;;5.57;;
13959;SDS011;7052;51.050;3.716;2024-02-21T14:21:08;6.37;;;4.23;;
13959;SDS011;7052;51.050;3.716;2024-02-21T14:23:38;9.30;;;5.57;;
13959;SDS011;7052;51.050;3.716;2024-02-21T14:26:06;10.00;;;5.47;;
13959;SDS011;7052;51.050;3.716;2024-02-21T14:28:34;7.83;;;5.03;;
13959;SDS011;7052;51.050;3.716;2024-02-21T14:31:01;8.20;;;5.20;;
13959;SDS011;7052;51.050;3.716;2024-02-21T14:33:31;7.27;;;4.90;;
13959;SDS011;7052;51.050;3.716;2024-02-21T14:35:57;6.10;;;4.77;;
13959;SDS011;7052;51.050;3.716;2024-02-21T14:38:28;7.13;;;5.07;;
13959;SDS011;7052;51.050;3.716;2024-02-21T14:40:56;9.73;;;5.80;;
13959;SDS011;7052;51.050;3.716;2024-02-21T14:43:23;7.00;;;5.63;;
13959;SDS011;7052;51.050;3.716;2024-02-21T14:45:55;8.47;;;5.43;;
13959;SDS011;7052;51.050;3.716;2024-02-21T14:48:25;7.00;;;5.00;;
13959;SDS011;7052;51.050;3.716;2024-02-21T14:50:54;9.23;;;6.30;;
13959;SDS011;7052;51.050;3.716;2024-02-21T14:53:20;7.37;;;5.90;;
13959;SDS011;7052;51.050;3.716;2024-02-21T14:55:49;8.67;;;5.40;;
13959;SDS011;7052;51.050;3.716;2024-02-21T14:58:16;6.83;;;5.27;;
13959;SDS011;7052;51.050;3.716;2024-02-21T15:00:44;6.90;;;5.50;;